sensor_id;sensor_type;location;lat;lon;timestamp;pressure;altitude;pressure_sealevel;temperature;humidity
19520;BME280;9904;52.246;20.898;2024-02-23T00:01:07;98066.78;;;7.75;78.12
19520;BME280;9904;52.246;20.898;2024-02-23T00:03:34;98057.97;;;7.81;78.22
19520;BME280;9904;52.246;20.898;2024-02-23T00:06:04;98069.75;;;7.80;78.20
19520;BME280;9904;52.246;20.898;2024-02-23T00:08:30;98072.06;;;7.83;77.69
19520;BME280;9904;52.246;20.898;2024-02-23T00:10:57;98051.47;;;7.75;78.24
19520;BME280;9904;52.246;20.898;2024-02-23T00:13:24;98060.81;;;7.80;78.29
19520;BME280;9904;52.246;20.898;2024-02-23T00:15:50;98060.91;;;7.86;77.99
19520;BME280;9904;52.246;20.898;2024-02-23T00:18:18;98066.50;;;7.85;78.08
19520;BME280;9904;52.246;20.898;2024-02-23T00:20:46;98052.19;;;7.84;77.88
19520;BME280;9904;52.246;20.898;2024-02-23T00:23:13;98061.75;;;7.87;77.79
19520;BME280;9904;52.246;20.898;2024-02-23T00:25:39;98057.66;;;7.76;78.67
19520;BME280;9904;52.246;20.898;2024-02-23T00:28:06;98065.00;;;7.82;78.32
19520;BME280;9904;52.246;20.898;2024-02-23T00:30:34;98061.47;;;7.97;77.93
19520;BME280;9904;52.246;20.898;2024-02-23T00:33:00;98063.31;;;7.96;78.11
19520;BME280;9904;52.246;20.898;2024-02-23T00:35:28;98057.25;;;7.94;77.85
19520;BME280;9904;52.246;20.898;2024-02-23T00:37:54;98052.94;;;7.93;78.03
19520;BME280;9904;52.246;20.898;2024-02-23T00:40:21;98060.25;;;7.84;78.61
19520;BME280;9904;52.246;20.898;2024-02-23T00:42:49;98046.69;;;7.92;78.15
19520;BME280;9904;52.246;20.898;2024-02-23T00:45:16;98043.53;;;7.89;78.37
19520;BME280;9904;52.246;20.898;2024-02-23T00:47:43;98040.72;;;7.97;77.98
19520;BME280;9904;52.246;20.898;2024-02-23T00:50:10;98031.38;;;7.93;78.06
19520;BME280;9904;52.246;20.898;2024-02-23T00:52:37;98047.59;;;8.00;77.92
19520;BME280;9904;52.246;20.898;2024-02-23T00:55:04;98029.13;;;7.97;77.76
19520;BME280;9904;52.246;20.898;2024-02-23T00:57:30;98018.84;;;7.85;78.42
19520;BME280;9904;52.246;20.898;2024-02-23T00:59:57;98035.16;;;7.99;78.22
19520;BME280;9904;52.246;20.898;2024-02-23T01:02:24;98017.91;;;7.93;78.22
19520;BME280;9904;52.246;20.898;2024-02-23T01:04:51;98018.97;;;7.99;78.31
19520;BME280;9904;52.246;20.898;2024-02-23T01:07:23;98015.66;;;7.97;78.19
19520;BME280;9904;52.246;20.898;2024-02-23T01:09:50;98016.22;;;7.92;78.48
19520;BME280;9904;52.246;20.898;2024-02-23T01:12:16;98005.56;;;7.84;79.34
19520;BME280;9904;52.246;20.898;2024-02-23T01:14:43;98006.47;;;7.91;78.78
19520;BME280;9904;52.246;20.898;2024-02-23T01:17:10;98003.34;;;7.87;78.83
19520;BME280;9904;52.246;20.898;2024-02-23T01:19:37;98018.81;;;8.00;78.33
19520;BME280;9904;52.246;20.898;2024-02-23T01:22:04;98005.16;;;8.02;78.38
19520;BME280;9904;52.246;20.898;2024-02-23T01:24:30;97998.75;;;7.88;79.20
19520;BME280;9904;52.246;20.898;2024-02-23T01:26:58;97992.72;;;7.86;78.90
19520;BME280;9904;52.246;20.898;2024-02-23T01:29:26;98002.94;;;7.90;79.07
19520;BME280;9904;52.246;20.898;2024-02-23T01:31:53;98008.78;;;7.94;78.83
19520;BME280;9904;52.246;20.898;2024-02-23T01:34:22;98009.88;;;8.00;78.64
19520;BME280;9904;52.246;20.898;2024-02-23T01:36:49;98019.06;;;8.05;78.44
19520;BME280;9904;52.246;20.898;2024-02-23T01:39:16;98003.22;;;7.96;78.50
19520;BME280;9904;52.246;20.898;2024-02-23T01:41:42;98000.53;;;7.96;79.10
19520;BME280;9904;52.246;20.898;2024-02-23T01:44:11;97984.03;;;7.84;79.58
19520;BME280;9904;52.246;20.898;2024-02-23T01:46:37;98015.13;;;7.86;79.36
19520;BME280;9904;52.246;20.898;2024-02-23T01:49:05;98016.69;;;7.96;79.40
19520;BME280;9904;52.246;20.898;2024-02-23T01:51:34;98013.09;;;8.10;78.62
19520;BME280;9904;52.246;20.898;2024-02-23T01:54:01;98019.97;;;8.13;78.60
19520;BME280;9904;52.246;20.898;2024-02-23T01:56:30;98018.41;;;8.03;78.48
19520;BME280;9904;52.246;20.898;2024-02-23T01:58:58;98002.56;;;7.93;79.15
19520;BME280;9904;52.246;20.898;2024-02-23T02:01:25;98000.19;;;8.05;78.86
19520;BME280;9904;52.246;20.898;2024-02-23T02:03:52;97996.09;;;8.09;78.67
19520;BME280;9904;52.246;20.898;2024-02-23T02:06:19;98008.63;;;8.17;78.66
19520;BME280;9904;52.246;20.898;2024-02-23T02:08:46;97991.91;;;8.07;79.12
19520;BME280;9904;52.246;20.898;2024-02-23T02:11:12;97987.06;;;8.17;78.78
19520;BME280;9904;52.246;20.898;2024-02-23T02:13:39;97989.47;;;8.12;78.90
19520;BME280;9904;52.246;20.898;2024-02-23T02:16:06;97983.19;;;8.05;79.25
19520;BME280;9904;52.246;20.898;2024-02-23T02:18:33;97986.59;;;8.14;79.19
19520;BME280;9904;52.246;20.898;2024-02-23T02:20:59;97983.25;;;8.12;79.46
19520;BME280;9904;52.246;20.898;2024-02-23T02:23:26;97976.84;;;8.13;79.17
19520;BME280;9904;52.246;20.898;2024-02-23T02:25:53;97986.16;;;8.10;79.34
19520;BME280;9904;52.246;20.898;2024-02-23T02:28:21;97985.75;;;8.13;79.17
19520;BME280;9904;52.246;20.898;2024-02-23T02:30:48;97983.25;;;8.12;79.64
19520;BME280;9904;52.246;20.898;2024-02-23T02:33:15;97985.75;;;8.13;79.56
19520;BME280;9904;52.246;20.898;2024-02-23T02:35:42;97983.47;;;8.10;79.92
19520;BME280;9904;52.246;20.898;2024-02-23T02:38:11;97961.84;;;8.03;79.93
19520;BME280;9904;52.246;20.898;2024-02-23T02:40:38;97979.91;;;8.09;79.93
19520;BME280;9904;52.246;20.898;2024-02-23T02:43:05;97970.00;;;8.10;79.75
19520;BME280;9904;52.246;20.898;2024-02-23T02:45:32;97982.69;;;8.16;79.95
19520;BME280;9904;52.246;20.898;2024-02-23T02:48:01;97989.09;;;8.15;79.81
19520;BME280;9904;52.246;20.898;2024-02-23T02:50:31;97974.16;;;8.13;80.28
19520;BME280;9904;52.246;20.898;2024-02-23T02:52:58;97982.00;;;8.07;80.54
19520;BME280;9904;52.246;20.898;2024-02-23T02:55:24;97981.84;;;8.16;80.04
19520;BME280;9904;52.246;20.898;2024-02-23T02:57:51;97976.44;;;8.16;80.20
19520;BME280;9904;52.246;20.898;2024-02-23T03:00:18;97976.41;;;8.09;80.52
19520;BME280;9904;52.246;20.898;2024-02-23T03:02:44;97999.50;;;8.18;80.18
19520;BME280;9904;52.246;20.898;2024-02-23T03:05:11;97981.03;;;8.15;80.42
19520;BME280;9904;52.246;20.898;2024-02-23T03:07:37;97971.34;;;8.21;80.83
19520;BME280;9904;52.246;20.898;2024-02-23T03:10:04;97977.50;;;8.15;81.21
19520;BME280;9904;52.246;20.898;2024-02-23T03:12:31;97994.88;;;8.12;81.89
19520;BME280;9904;52.246;20.898;2024-02-23T03:14:58;98000.44;;;8.11;82.51
19520;BME280;9904;52.246;20.898;2024-02-23T03:17:25;97992.81;;;8.14;nan
19520;BME280;9904;52.246;20.898;2024-02-23T03:19:52;97996.50;;;8.06;84.33
19520;BME280;9904;52.246;20.898;2024-02-23T03:22:19;98000.97;;;7.99;85.32
19520;BME280;9904;52.246;20.898;2024-02-23T03:24:45;97997.81;;;7.96;85.96
19520;BME280;9904;52.246;20.898;2024-02-23T03:27:12;98007.75;;;7.95;87.07
19520;BME280;9904;52.246;20.898;2024-02-23T03:29:39;98001.47;;;7.88;87.91
19520;BME280;9904;52.246;20.898;2024-02-23T03:32:06;98008.06;;;7.85;88.67
19520;BME280;9904;52.246;20.898;2024-02-23T03:34:33;98008.06;;;7.85;89.22
19520;BME280;9904;52.246;20.898;2024-02-23T03:36:59;98009.28;;;7.83;89.60
19520;BME280;9904;52.246;20.898;2024-02-23T03:39:28;97993.31;;;7.81;90.77
19520;BME280;9904;52.246;20.898;2024-02-23T03:41:55;97999.28;;;7.76;91.66
19520;BME280;9904;52.246;20.898;2024-02-23T03:44:21;98014.97;;;7.73;91.88
19520;BME280;9904;52.246;20.898;2024-02-23T03:46:48;98019.91;;;7.69;92.47
19520;BME280;9904;52.246;20.898;2024-02-23T03:49:15;98022.16;;;7.66;93.38
19520;BME280;9904;52.246;20.898;2024-02-23T03:51:42;98019.16;;;7.60;94.00
19520;BME280;9904;52.246;20.898;2024-02-23T03:54:08;98027.16;;;7.54;94.87
19520;BME280;9904;52.246;20.898;2024-02-23T03:56:42;98021.31;;;7.50;95.39
19520;BME280;9904;52.246;20.898;2024-02-23T03:59:09;98029.03;;;7.38;96.34
19520;BME280;9904;52.246;20.898;2024-02-23T04:01:37;98032.34;;;7.40;96.98
19520;BME280;9904;52.246;20.898;2024-02-23T04:04:05;98030.13;;;7.44;96.68
19520;BME280;9904;52.246;20.898;2024-02-23T04:06:32;98030.69;;;7.24;97.74
19520;BME280;9904;52.246;20.898;2024-02-23T04:08:59;98030.59;;;7.33;98.01
19520;BME280;9904;52.246;20.898;2024-02-23T04:11:26;98038.41;;;7.27;97.92
19520;BME280;9904;52.246;20.898;2024-02-23T04:13:52;98042.19;;;7.33;98.80
19520;BME280;9904;52.246;20.898;2024-02-23T04:16:23;98041.47;;;7.24;99.43
19520;BME280;9904;52.246;20.898;2024-02-23T04:18:50;98048.72;;;7.24;100.00
19520;BME280;9904;52.246;20.898;2024-02-23T04:21:17;98046.38;;;7.06;100.00
19520;BME280;9904;52.246;20.898;2024-02-23T04:23:43;98053.31;;;7.15;100.00
19520;BME280;9904;52.246;20.898;2024-02-23T04:26:11;98040.06;;;7.13;100.00
19520;BME280;9904;52.246;20.898;2024-02-23T04:28:38;98057.03;;;7.14;100.00
19520;BME280;9904;52.246;20.898;2024-02-23T04:31:05;98041.09;;;7.12;100.00
19520;BME280;9904;52.246;20.898;2024-02-23T04:33:32;98056.22;;;7.13;100.00
19520;BME280;9904;52.246;20.898;2024-02-23T04:35:59;98060.38;;;7.16;100.00
19520;BME280;9904;52.246;20.898;2024-02-23T04:38:25;98049.44;;;7.18;100.00
19520;BME280;9904;52.246;20.898;2024-02-23T04:40:52;98053.78;;;7.19;100.00
19520;BME280;9904;52.246;20.898;2024-02-23T04:43:19;98066.78;;;7.15;100.00
19520;BME280;9904;52.246;20.898;2024-02-23T04:45:45;98056.47;;;7.19;100.00
19520;BME280;9904;52.246;20.898;2024-02-23T04:48:12;98064.19;;;7.22;100.00
19520;BME280;9904;52.246;20.898;2024-02-23T04:50:38;98066.78;;;7.15;100.00
19520;BME280;9904;52.246;20.898;2024-02-23T04:53:05;98064.41;;;7.20;100.00
19520;BME280;9904;52.246;20.898;2024-02-23T04:55:32;98063.72;;;7.18;100.00
19520;BME280;9904;52.246;20.898;2024-02-23T04:57:58;98079.53;;;7.21;100.00
19520;BME280;9904;52.246;20.898;2024-02-23T05:00:25;98075.16;;;7.20;100.00
19520;BME280;9904;52.246;20.898;2024-02-23T05:03:00;98080.22;;;7.15;100.00
19520;BME280;9904;52.246;20.898;2024-02-23T05:05:30;98081.09;;;7.16;100.00
19520;BME280;9904;52.246;20.898;2024-02-23T05:07:57;98079.59;;;7.13;100.00
19520;BME280;9904;52.246;20.898;2024-02-23T05:10:24;98078.94;;;7.11;100.00
19520;BME280;9904;52.246;20.898;2024-02-23T05:12:50;98096.56;;;7.13;100.00
19520;BME280;9904;52.246;20.898;2024-02-23T05:15:17;98087.47;;;7.14;100.00
19520;BME280;9904;52.246;20.898;2024-02-23T05:17:44;98094.53;;;7.16;100.00
19520;BME280;9904;52.246;20.898;2024-02-23T05:20:11;98099.72;;;7.17;100.00
19520;BME280;9904;52.246;20.898;2024-02-23T05:22:41;98104.09;;;7.18;100.00
19520;BME280;9904;52.246;20.898;2024-02-23T05:25:08;98097.69;;;7.19;100.00
19520;BME280;9904;52.246;20.898;2024-02-23T05:27:38;98109.81;;;7.15;100.00
19520;BME280;9904;52.246;20.898;2024-02-23T05:30:05;98109.47;;;7.18;100.00
19520;BME280;9904;52.246;20.898;2024-02-23T05:32:33;98113.91;;;7.11;100.00
19520;BME280;9904;52.246;20.898;2024-02-23T05:35:00;98115.41;;;7.13;100.00
19520;BME280;9904;52.246;20.898;2024-02-23T05:37:27;98123.94;;;7.17;100.00
19520;BME280;9904;52.246;20.898;2024-02-23T05:39:53;98116.16;;;7.22;100.00
19520;BME280;9904;52.246;20.898;2024-02-23T05:42:20;98127.09;;;7.21;100.00
19520;BME280;9904;52.246;20.898;2024-02-23T05:44:47;98130.34;;;7.16;100.00
19520;BME280;9904;52.246;20.898;2024-02-23T05:47:15;98137.94;;;7.12;100.00
19520;BME280;9904;52.246;20.898;2024-02-23T05:49:41;98129.88;;;7.12;100.00
19520;BME280;9904;52.246;20.898;2024-02-23T05:52:08;98136.09;;;7.13;100.00
19520;BME280;9904;52.246;20.898;2024-02-23T05:54:36;98141.56;;;7.20;100.00
19520;BME280;9904;52.246;20.898;2024-02-23T05:57:03;98141.41;;;7.21;100.00
19520;BME280;9904;52.246;20.898;2024-02-23T05:59:29;98148.16;;;7.17;100.00
19520;BME280;9904;52.246;20.898;2024-02-23T06:01:56;98148.91;;;7.11;100.00
19520;BME280;9904;52.246;20.898;2024-02-23T06:04:26;98151.50;;;7.19;100.00
19520;BME280;9904;52.246;20.898;2024-02-23T06:06:53;98159.13;;;7.16;100.00
19520;BME280;9904;52.246;20.898;2024-02-23T06:09:21;98163.84;;;7.13;100.00
19520;BME280;9904;52.246;20.898;2024-02-23T06:11:48;98163.63;;;7.15;100.00
19520;BME280;9904;52.246;20.898;2024-02-23T06:14:14;98164.78;;;7.21;100.00
19520;BME280;9904;52.246;20.898;2024-02-23T06:16:41;98167.75;;;7.26;100.00
19520;BME280;9904;52.246;20.898;2024-02-23T06:19:08;98168.31;;;7.21;100.00
19520;BME280;9904;52.246;20.898;2024-02-23T06:21:36;98163.22;;;7.26;100.00
19520;BME280;9904;52.246;20.898;2024-02-23T06:24:03;98179.44;;;7.18;100.00
19520;BME280;9904;52.246;20.898;2024-02-23T06:26:31;98172.84;;;7.21;100.00
19520;BME280;9904;52.246;20.898;2024-02-23T06:28:58;98179.44;;;7.18;100.00
19520;BME280;9904;52.246;20.898;2024-02-23T06:31:25;98188.94;;;7.29;100.00
19520;BME280;9904;52.246;20.898;2024-02-23T06:33:52;98190.13;;;7.26;100.00
19520;BME280;9904;52.246;20.898;2024-02-23T06:36:19;98184.38;;;7.29;100.00
19520;BME280;9904;52.246;20.898;2024-02-23T06:38:46;98188.25;;;7.27;100.00
19520;BME280;9904;52.246;20.898;2024-02-23T06:41:12;98191.81;;;7.27;100.00
19520;BME280;9904;52.246;20.898;2024-02-23T06:43:39;98206.22;;;7.35;100.00
19520;BME280;9904;52.246;20.898;2024-02-23T06:46:07;98207.03;;;7.35;100.00
19520;BME280;9904;52.246;20.898;2024-02-23T06:48:35;98209.19;;;7.40;100.00
19520;BME280;9904;52.246;20.898;2024-02-23T06:51:03;98197.28;;;7.34;100.00
19520;BME280;9904;52.246;20.898;2024-02-23T06:53:30;98211.06;;;7.39;100.00
19520;BME280;9904;52.246;20.898;2024-02-23T06:55:57;98210.56;;;7.36;100.00
19520;BME280;9904;52.246;20.898;2024-02-23T06:58:25;98214.84;;;7.45;100.00
19520;BME280;9904;52.246;20.898;2024-02-23T07:00:52;98222.38;;;7.50;100.00
19520;BME280;9904;52.246;20.898;2024-02-23T07:03:19;98214.84;;;7.45;100.00
19520;BME280;9904;52.246;20.898;2024-02-23T07:05:46;98217.84;;;7.50;100.00
19520;BME280;9904;52.246;20.898;2024-02-23T07:08:14;98221.38;;;7.51;100.00
19520;BME280;9904;52.246;20.898;2024-02-23T07:10:40;98228.78;;;7.49;100.00
19520;BME280;9904;52.246;20.898;2024-02-23T07:13:07;98229.91;;;7.54;100.00
19520;BME280;9904;52.246;20.898;2024-02-23T07:15:34;98246.44;;;7.51;100.00
19520;BME280;9904;52.246;20.898;2024-02-23T07:18:02;98239.59;;;7.64;100.00
19520;BME280;9904;52.246;20.898;2024-02-23T07:20:29;98246.91;;;7.55;100.00
19520;BME280;9904;52.246;20.898;2024-02-23T07:22:56;98249.41;;;7.56;100.00
19520;BME280;9904;52.246;20.898;2024-02-23T07:25:23;98250.91;;;7.59;100.00
19520;BME280;9904;52.246;20.898;2024-02-23T07:27:49;98256.41;;;7.66;100.00
19520;BME280;9904;52.246;20.898;2024-02-23T07:30:16;98249.81;;;7.68;100.00
19520;BME280;9904;52.246;20.898;2024-02-23T07:32:44;98262.44;;;7.68;100.00
19520;BME280;9904;52.246;20.898;2024-02-23T07:35:15;98270.81;;;7.73;100.00
19520;BME280;9904;52.246;20.898;2024-02-23T07:37:42;98269.88;;;7.81;100.00
19520;BME280;9904;52.246;20.898;2024-02-23T07:40:08;98269.16;;;7.87;100.00
19520;BME280;9904;52.246;20.898;2024-02-23T07:42:36;98268.13;;;7.88;100.00
19520;BME280;9904;52.246;20.898;2024-02-23T07:45:03;98273.44;;;7.81;100.00
19520;BME280;9904;52.246;20.898;2024-02-23T07:47:31;98277.22;;;7.87;100.00
19520;BME280;9904;52.246;20.898;2024-02-23T07:49:58;98286.16;;;7.87;100.00
19520;BME280;9904;52.246;20.898;2024-02-23T07:52:25;98291.44;;;7.81;100.00
19520;BME280;9904;52.246;20.898;2024-02-23T07:54:52;98280.13;;;7.85;100.00
19520;BME280;9904;52.246;20.898;2024-02-23T07:57:19;98290.16;;;7.76;100.00
19520;BME280;9904;52.246;20.898;2024-02-23T07:59:47;98293.31;;;7.80;100.00
19520;BME280;9904;52.246;20.898;2024-02-23T08:02:15;98304.91;;;7.81;100.00
19520;BME280;9904;52.246;20.898;2024-02-23T08:04:41;98298.22;;;7.76;100.00
19520;BME280;9904;52.246;20.898;2024-02-23T08:07:09;98306.50;;;7.90;100.00
19520;BME280;9904;52.246;20.898;2024-02-23T08:09:36;98304.00;;;7.88;100.00
19520;BME280;9904;52.246;20.898;2024-02-23T08:12:03;98306.78;;;7.95;100.00
19520;BME280;9904;52.246;20.898;2024-02-23T08:14:30;98304.00;;;7.88;100.00
19520;BME280;9904;52.246;20.898;2024-02-23T08:16:57;98314.53;;;7.98;100.00
19520;BME280;9904;52.246;20.898;2024-02-23T08:19:24;98313.38;;;7.92;100.00
19520;BME280;9904;52.246;20.898;2024-02-23T08:21:50;98320.47;;;7.93;100.00
19520;BME280;9904;52.246;20.898;2024-02-23T08:24:17;98328.47;;;8.02;100.00
19520;BME280;9904;52.246;20.898;2024-02-23T08:26:44;98329.47;;;8.01;100.00
19520;BME280;9904;52.246;20.898;2024-02-23T08:29:10;98333.31;;;8.06;100.00
19520;BME280;9904;52.246;20.898;2024-02-23T08:31:37;98335.34;;;8.04;100.00
19520;BME280;9904;52.246;20.898;2024-02-23T08:34:08;98334.97;;;8.07;100.00
19520;BME280;9904;52.246;20.898;2024-02-23T08:36:34;98346.13;;;8.04;100.00
19520;BME280;9904;52.246;20.898;2024-02-23T08:39:01;98333.47;;;8.05;100.00
19520;BME280;9904;52.246;20.898;2024-02-23T08:41:29;98341.66;;;8.12;100.00
19520;BME280;9904;52.246;20.898;2024-02-23T08:43:55;98352.25;;;8.13;100.00
19520;BME280;9904;52.246;20.898;2024-02-23T08:46:22;98345.31;;;8.19;100.00
19520;BME280;9904;52.246;20.898;2024-02-23T08:48:49;98362.13;;;8.21;100.00
19520;BME280;9904;52.246;20.898;2024-02-23T08:51:16;98363.44;;;8.25;100.00
19520;BME280;9904;52.246;20.898;2024-02-23T08:53:42;98361.88;;;8.31;100.00
19520;BME280;9904;52.246;20.898;2024-02-23T08:56:11;98362.69;;;8.31;100.00
19520;BME280;9904;52.246;20.898;2024-02-23T08:58:38;98365.97;;;8.41;100.00
19520;BME280;9904;52.246;20.898;2024-02-23T09:01:05;98366.97;;;8.40;100.00
19520;BME280;9904;52.246;20.898;2024-02-23T09:03:32;98379.09;;;8.45;100.00
19520;BME280;9904;52.246;20.898;2024-02-23T09:05:58;98381.16;;;8.57;100.00
19520;BME280;9904;52.246;20.898;2024-02-23T09:08:25;98379.03;;;8.68;100.00
19520;BME280;9904;52.246;20.898;2024-02-23T09:10:52;98368.78;;;8.63;100.00
19520;BME280;9904;52.246;20.898;2024-02-23T09:13:19;98380.22;;;8.80;100.00
19520;BME280;9904;52.246;20.898;2024-02-23T09:15:45;98379.84;;;8.83;100.00
19520;BME280;9904;52.246;20.898;2024-02-23T09:18:12;98392.44;;;8.91;100.00
19520;BME280;9904;52.246;20.898;2024-02-23T09:20:39;98376.41;;;8.90;100.00
19520;BME280;9904;52.246;20.898;2024-02-23T09:23:06;98387.38;;;9.03;100.00
19520;BME280;9904;52.246;20.898;2024-02-23T09:25:32;98380.94;;;9.04;100.00
19520;BME280;9904;52.246;20.898;2024-02-23T09:27:59;98384.47;;;9.19;100.00
19520;BME280;9904;52.246;20.898;2024-02-23T09:30:26;98390.59;;;9.28;100.00
19520;BME280;9904;52.246;20.898;2024-02-23T09:32:52;98394.03;;;9.37;100.00
19520;BME280;9904;52.246;20.898;2024-02-23T09:35:19;98400.06;;;9.39;100.00
19520;BME280;9904;52.246;20.898;2024-02-23T09:37:46;98390.75;;;9.42;100.00
19520;BME280;9904;52.246;20.898;2024-02-23T09:40:14;98395.13;;;9.43;100.00
19520;BME280;9904;52.246;20.898;2024-02-23T09:42:42;98408.63;;;9.43;100.00
19520;BME280;9904;52.246;20.898;2024-02-23T09:45:10;98402.66;;;9.47;100.00
19520;BME280;9904;52.246;20.898;2024-02-23T09:47:38;98412.25;;;9.50;100.00
19520;BME280;9904;52.246;20.898;2024-02-23T09:50:06;98408.63;;;9.43;100.00
19520;BME280;9904;52.246;20.898;2024-02-23T09:52:35;98412.47;;;9.33;100.00
19520;BME280;9904;52.246;20.898;2024-02-23T09:55:02;98425.72;;;9.28;100.00
19520;BME280;9904;52.246;20.898;2024-02-23T09:57:30;98426.16;;;9.32;100.00
19520;BME280;9904;52.246;20.898;2024-02-23T09:59:57;98423.25;;;9.33;100.00
19520;BME280;9904;52.246;20.898;2024-02-23T10:02:25;98424.03;;;9.27;100.00
19520;BME280;9904;52.246;20.898;2024-02-23T10:04:54;98425.72;;;9.28;100.00
19520;BME280;9904;52.246;20.898;2024-02-23T10:07:23;98426.16;;;9.32;100.00
19520;BME280;9904;52.246;20.898;2024-02-23T10:09:50;98426.88;;;9.41;100.00
19520;BME280;9904;52.246;20.898;2024-02-23T10:12:18;98420.00;;;9.38;100.00
19520;BME280;9904;52.246;20.898;2024-02-23T10:14:45;98428.56;;;9.42;100.00
19520;BME280;9904;52.246;20.898;2024-02-23T10:17:11;98441.31;;;9.48;100.00
19520;BME280;9904;52.246;20.898;2024-02-23T10:19:38;98446.41;;;9.58;100.00
19520;BME280;9904;52.246;20.898;2024-02-23T10:22:05;98440.16;;;9.57;100.00
19520;BME280;9904;52.246;20.898;2024-02-23T10:24:31;98443.78;;;9.64;100.00
19520;BME280;9904;52.246;20.898;2024-02-23T10:27:00;98442.94;;;9.64;100.00
19520;BME280;9904;52.246;20.898;2024-02-23T10:29:27;98448.97;;;9.66;100.00
19520;BME280;9904;52.246;20.898;2024-02-23T10:31:56;98455.94;;;9.75;100.00
19520;BME280;9904;52.246;20.898;2024-02-23T10:34:24;98458.19;;;9.72;100.00
19520;BME280;9904;52.246;20.898;2024-02-23T10:36:52;98465.19;;;9.66;100.00
19520;BME280;9904;52.246;20.898;2024-02-23T10:39:19;98469.22;;;9.70;100.00
19520;BME280;9904;52.246;20.898;2024-02-23T10:42:02;98466.97;;;9.74;100.00
19520;BME280;9904;52.246;20.898;2024-02-23T10:44:30;98464.88;;;9.76;100.00
19520;BME280;9904;52.246;20.898;2024-02-23T10:46:58;98476.84;;;9.66;100.00
19520;BME280;9904;52.246;20.898;2024-02-23T10:49:27;98480.59;;;9.50;100.00
19520;BME280;9904;52.246;20.898;2024-02-23T10:51:54;98482.53;;;9.57;100.00
19520;BME280;9904;52.246;20.898;2024-02-23T10:54:22;98482.94;;;9.54;100.00
19520;BME280;9904;52.246;20.898;2024-02-23T10:56:50;98496.25;;;9.55;100.00
19520;BME280;9904;52.246;20.898;2024-02-23T10:59:18;98498.13;;;9.55;100.00
19520;BME280;9904;52.246;20.898;2024-02-23T11:01:49;98496.53;;;9.45;100.00
19520;BME280;9904;52.246;20.898;2024-02-23T11:04:17;98499.69;;;9.49;100.00
19520;BME280;9904;52.246;20.898;2024-02-23T11:06:50;98496.44;;;9.54;100.00
19520;BME280;9904;52.246;20.898;2024-02-23T11:09:21;98505.63;;;9.59;100.00
19520;BME280;9904;52.246;20.898;2024-02-23T11:11:58;98502.91;;;9.59;100.00
19520;BME280;9904;52.246;20.898;2024-02-23T11:14:36;98502.91;;;9.59;100.00
19520;BME280;9904;52.246;20.898;2024-02-23T11:17:03;98507.34;;;9.45;100.00
19520;BME280;9904;52.246;20.898;2024-02-23T11:19:38;98516.47;;;9.44;100.00
19520;BME280;9904;52.246;20.898;2024-02-23T11:22:09;98518.34;;;9.44;100.00
19520;BME280;9904;52.246;20.898;2024-02-23T11:24:49;98525.03;;;9.48;100.00
19520;BME280;9904;52.246;20.898;2024-02-23T11:27:21;98518.97;;;9.46;100.00
19520;BME280;9904;52.246;20.898;2024-02-23T11:30:02;98521.38;;;9.56;100.00
19520;BME280;9904;52.246;20.898;2024-02-23T11:32:46;98528.28;;;9.58;100.00
19520;BME280;9904;52.246;20.898;2024-02-23T11:35:25;98525.59;;;9.58;100.00
19520;BME280;9904;52.246;20.898;2024-02-23T11:37:55;98528.84;;;9.54;100.00
19520;BME280;9904;52.246;20.898;2024-02-23T11:40:26;98532.00;;;9.57;100.00
19520;BME280;9904;52.246;20.898;2024-02-23T11:42:57;98543.75;;;9.64;100.00
19520;BME280;9904;52.246;20.898;2024-02-23T11:45:30;98547.91;;;9.67;100.00
19520;BME280;9904;52.246;20.898;2024-02-23T11:47:58;98544.50;;;9.58;100.00
19520;BME280;9904;52.246;20.898;2024-02-23T11:50:26;98546.44;;;9.64;100.00
19520;BME280;9904;52.246;20.898;2024-02-23T11:52:53;98551.00;;;9.64;100.00
19520;BME280;9904;52.246;20.898;2024-02-23T11:55:21;98549.81;;;9.66;100.00
19520;BME280;9904;52.246;20.898;2024-02-23T11:57:51;98557.59;;;9.61;100.00
19520;BME280;9904;52.246;20.898;2024-02-23T12:00:30;98564.69;;;9.77;100.00
19520;BME280;9904;52.246;20.898;2024-02-23T12:02:57;98571.28;;;9.75;100.00
19520;BME280;9904;52.246;20.898;2024-02-23T12:05:24;98576.44;;;9.70;100.00
19520;BME280;9904;52.246;20.898;2024-02-23T12:07:51;98576.69;;;9.75;100.00
19520;BME280;9904;52.246;20.898;2024-02-23T12:10:17;98576.78;;;9.81;100.00
19520;BME280;9904;52.246;20.898;2024-02-23T12:12:44;98584.16;;;9.73;100.00
19520;BME280;9904;52.246;20.898;2024-02-23T12:15:11;98575.03;;;9.74;100.00
19520;BME280;9904;52.246;20.898;2024-02-23T12:17:46;98583.22;;;9.80;100.00
19520;BME280;9904;52.246;20.898;2024-02-23T12:20:13;98579.94;;;9.85;100.00
19520;BME280;9904;52.246;20.898;2024-02-23T12:22:41;98587.13;;;9.78;100.00
19520;BME280;9904;52.246;20.898;2024-02-23T12:25:07;98581.06;;;9.76;100.00
19520;BME280;9904;52.246;20.898;2024-02-23T12:27:34;98588.69;;;10.02;100.00
19520;BME280;9904;52.246;20.898;2024-02-23T12:30:01;98592.28;;;10.09;100.00
19520;BME280;9904;52.246;20.898;2024-02-23T12:32:27;98593.34;;;9.93;100.00
19520;BME280;9904;52.246;20.898;2024-02-23T12:34:55;98602.28;;;9.94;100.00
19520;BME280;9904;52.246;20.898;2024-02-23T12:37:22;98594.00;;;9.95;100.00
19520;BME280;9904;52.246;20.898;2024-02-23T12:39:49;98599.53;;;9.87;100.00
19520;BME280;9904;52.246;20.898;2024-02-23T12:42:18;98600.19;;;9.89;100.00
19520;BME280;9904;52.246;20.898;2024-02-23T12:44:44;98597.75;;;9.94;100.00
19520;BME280;9904;52.246;20.898;2024-02-23T12:47:11;98598.41;;;9.96;100.00
19520;BME280;9904;52.246;20.898;2024-02-23T12:49:37;98599.03;;;9.98;100.00
19520;BME280;9904;52.246;20.898;2024-02-23T12:52:08;98600.91;;;9.83;100.00
19520;BME280;9904;52.246;20.898;2024-02-23T12:54:35;98604.53;;;9.90;100.00
19520;BME280;9904;52.246;20.898;2024-02-23T12:57:01;98605.00;;;9.94;100.00
19520;BME280;9904;52.246;20.898;2024-02-23T12:59:28;98611.00;;;9.89;100.00
19520;BME280;9904;52.246;20.898;2024-02-23T13:01:55;98619.56;;;9.93;100.00
19520;BME280;9904;52.246;20.898;2024-02-23T13:04:21;98611.91;;;9.96;100.00